Impacts METAR Board
IDs:

KSLC - Salt Lake City Intl, UT, US

Updated at: 0000 UTC 27 Apr 2018
Potential Impact None Slight Moderate High
Time 26/12Z 26/13Z 26/14Z 26/15Z 26/16Z 26/17Z 26/18Z 26/19Z 26/20Z 26/21Z 26/22Z 26/23Z 27/00Z
Temp49 49 53 59 63 66 69 71 74 76 75 76 74
Dewpt36 35 34 35 33 33 35 29 28 30 31 32 33
Altim30.15 30.16 30.18 30.19 30.18 30.19 30.18 30.17 30.14 30.13 30.10 30.09 30.07
VIS10 10 10 10 10 10 10 10 10 10 10 10 10
CIG-- -- -- -- -- -- -- -- -- -- -- -- --
CoverFEWCLRCLRCLRCLRCLRCLRCLRCLRCLRCLRFEWCLR
FltCatVFRVFRVFRVFRVFRVFRVFRVFRVFRVFRVFRVFRVFR
WX--------------------------
WDir1801401500029031033036035034010340
WSpd4 5 4 0 3 5 10 7 7 5 9 12 8
WGst-- -- -- -- -- -- -- -- -- -- 16 -- --
Raw hourly METARs
KSLC 261154Z 18004KT 10SM FEW200 09/02 A3015 RMK AO2 SLP175 T00940022 10128 20094 53004
KSLC 261254Z 14005KT 10SM CLR 09/02 A3016 RMK AO2 SLP182 T00940017
KSLC 261354Z COR 15004KT 10SM CLR 12/01 A3018 RMK AO2 SLP187 T01170011
KSLC 261454Z COR 00000KT 10SM CLR 15/02 A3019 RMK AO2 SLP185 T01500017 51012
KSLC 261554Z VRB03KT 10SM CLR 17/01 A3018 RMK AO2 SLP188 T01720006
KSLC 261654Z 29005KT 10SM CLR 19/01 A3019 RMK AO2 SLP187 T01890006
KSLC 261754Z 31010KT 10SM CLR 21/02 A3018 RMK AO2 SLP185 T02060017 10206 20083 58002
KSLC 261854Z 33007KT 10SM CLR 22/M02 A3017 RMK AO2 SLP179 T02171017
KSLC 261954Z 36007KT 10SM CLR 23/M02 A3014 RMK AO2 SLP171 T02331022
KSLC 262054Z 35005KT 10SM CLR 24/M01 A3013 RMK AO2 SLP165 T02441011 56015
KSLC 262154Z 34009G16KT 10SM CLR 24/M01 A3010 RMK AO2 SLP157 T02391006
KSLC 262254Z 01012KT 10SM FEW070 24/00 A3009 RMK AO2 SLP151 T02440000
KSLC 262354Z 34008KT 10SM CLR 23/01 A3007 RMK AO2 SLP146 T02330006 10250 20200 56019



Page loaded:  00:29 UTC  |   05:29 PM Pacific  |   06:29 PM Mountain  |   07:29 PM Central  |   08:29 PM Eastern

 

ADVISORIES

FORECASTS

FORECASTS

OBSERVATIONS

USER TOOLS

ABOUT US